sensor_id;sensor_type;location;lat;lon;timestamp;P1;durP1;ratioP1;P2;durP2;ratioP2
2756;SDS011;1386;50.862;6.494;2022-08-04T05:18:53;5.23;;;3.00;;
2756;SDS011;1386;50.862;6.494;2022-08-04T05:21:32;3.77;;;2.60;;
2756;SDS011;1386;50.862;6.494;2022-08-04T05:24:05;8.47;;;3.17;;
2756;SDS011;1386;50.862;6.494;2022-08-04T05:26:36;5.73;;;2.90;;
2756;SDS011;1386;50.862;6.494;2022-08-04T05:29:08;5.00;;;2.37;;
2756;SDS011;1386;50.862;6.494;2022-08-04T05:31:38;5.50;;;3.10;;
2756;SDS011;1386;50.862;6.494;2022-08-04T05:34:10;8.93;;;3.10;;
2756;SDS011;1386;50.862;6.494;2022-08-04T05:36:41;6.17;;;2.77;;
2756;SDS011;1386;50.862;6.494;2022-08-04T05:39:13;5.63;;;2.80;;
2756;SDS011;1386;50.862;6.494;2022-08-04T05:41:44;5.97;;;3.30;;
2756;SDS011;1386;50.862;6.494;2022-08-04T05:44:12;13.67;;;3.67;;
2756;SDS011;1386;50.862;6.494;2022-08-04T05:46:41;5.43;;;2.80;;
2756;SDS011;1386;50.862;6.494;2022-08-04T05:49:10;4.73;;;3.10;;
2756;SDS011;1386;50.862;6.494;2022-08-04T05:51:37;7.20;;;3.40;;
2756;SDS011;1386;50.862;6.494;2022-08-04T05:54:05;5.57;;;3.50;;
2756;SDS011;1386;50.862;6.494;2022-08-04T05:56:34;10.73;;;3.10;;
2756;SDS011;1386;50.862;6.494;2022-08-04T05:59:03;7.70;;;2.70;;
2756;SDS011;1386;50.862;6.494;2022-08-04T06:01:31;5.57;;;2.80;;
2756;SDS011;1386;50.862;6.494;2022-08-04T06:04:00;10.97;;;3.00;;
2756;SDS011;1386;50.862;6.494;2022-08-04T06:06:29;4.07;;;2.40;;
2756;SDS011;1386;50.862;6.494;2022-08-04T06:08:56;6.70;;;2.83;;
2756;SDS011;1386;50.862;6.494;2022-08-04T06:11:24;6.17;;;2.47;;
2756;SDS011;1386;50.862;6.494;2022-08-04T06:13:55;6.47;;;2.90;;
2756;SDS011;1386;50.862;6.494;2022-08-04T06:16:25;9.80;;;3.23;;
2756;SDS011;1386;50.862;6.494;2022-08-04T06:18:58;3.93;;;2.60;;
2756;SDS011;1386;50.862;6.494;2022-08-04T06:21:29;7.47;;;2.97;;
2756;SDS011;1386;50.862;6.494;2022-08-04T06:23:58;12.03;;;3.23;;
2756;SDS011;1386;50.862;6.494;2022-08-04T06:26:26;8.13;;;3.17;;
2756;SDS011;1386;50.862;6.494;2022-08-04T06:28:55;6.50;;;3.33;;
2756;SDS011;1386;50.862;6.494;2022-08-04T06:31:23;12.37;;;3.33;;
2756;SDS011;1386;50.862;6.494;2022-08-04T06:34:08;8.73;;;4.20;;
2756;SDS011;1386;50.862;6.494;2022-08-04T06:36:39;5.47;;;3.33;;
2756;SDS011;1386;50.862;6.494;2022-08-04T06:39:07;10.87;;;3.87;;
2756;SDS011;1386;50.862;6.494;2022-08-04T06:41:36;13.60;;;3.33;;
2756;SDS011;1386;50.862;6.494;2022-08-04T06:44:04;8.83;;;3.53;;
2756;SDS011;1386;50.862;6.494;2022-08-04T06:46:33;21.87;;;3.77;;
2756;SDS011;1386;50.862;6.494;2022-08-04T06:49:02;22.10;;;5.23;;
2756;SDS011;1386;50.862;6.494;2022-08-04T06:51:29;22.50;;;4.90;;
2756;SDS011;1386;50.862;6.494;2022-08-04T06:53:59;19.33;;;4.50;;
2756;SDS011;1386;50.862;6.494;2022-08-04T06:56:26;13.77;;;3.27;;
2756;SDS011;1386;50.862;6.494;2022-08-04T06:58:56;4.83;;;2.43;;
2756;SDS011;1386;50.862;6.494;2022-08-04T07:01:24;7.20;;;2.57;;
2756;SDS011;1386;50.862;6.494;2022-08-04T07:03:52;8.23;;;3.00;;
2756;SDS011;1386;50.862;6.494;2022-08-04T07:06:20;6.63;;;2.70;;
2756;SDS011;1386;50.862;6.494;2022-08-04T07:08:49;4.70;;;2.90;;
2756;SDS011;1386;50.862;6.494;2022-08-04T07:11:19;5.23;;;2.57;;
2756;SDS011;1386;50.862;6.494;2022-08-04T07:13:46;6.63;;;2.70;;
2756;SDS011;1386;50.862;6.494;2022-08-04T07:16:14;4.70;;;3.23;;
2756;SDS011;1386;50.862;6.494;2022-08-04T07:18:43;7.03;;;2.50;;
2756;SDS011;1386;50.862;6.494;2022-08-04T07:21:14;5.50;;;2.50;;
2756;SDS011;1386;50.862;6.494;2022-08-04T07:23:45;6.17;;;3.17;;
2756;SDS011;1386;50.862;6.494;2022-08-04T07:26:12;6.40;;;2.57;;
2756;SDS011;1386;50.862;6.494;2022-08-04T07:28:42;6.97;;;3.10;;
2756;SDS011;1386;50.862;6.494;2022-08-04T07:31:10;5.70;;;2.57;;
2756;SDS011;1386;50.862;6.494;2022-08-04T07:33:41;6.80;;;2.80;;
2756;SDS011;1386;50.862;6.494;2022-08-04T07:36:08;6.13;;;2.53;;
2756;SDS011;1386;50.862;6.494;2022-08-04T07:38:36;7.47;;;2.90;;
2756;SDS011;1386;50.862;6.494;2022-08-04T07:41:03;7.60;;;2.80;;
2756;SDS011;1386;50.862;6.494;2022-08-04T07:43:31;5.03;;;2.73;;
2756;SDS011;1386;50.862;6.494;2022-08-04T07:46:00;5.03;;;2.60;;
2756;SDS011;1386;50.862;6.494;2022-08-04T07:48:27;5.60;;;2.83;;
2756;SDS011;1386;50.862;6.494;2022-08-04T07:50:54;7.23;;;2.63;;
2756;SDS011;1386;50.862;6.494;2022-08-04T07:53:21;3.43;;;2.23;;
2756;SDS011;1386;50.862;6.494;2022-08-04T07:55:49;5.73;;;2.67;;
2756;SDS011;1386;50.862;6.494;2022-08-04T07:58:18;4.80;;;2.43;;
2756;SDS011;1386;50.862;6.494;2022-08-04T08:00:45;5.90;;;2.33;;
2756;SDS011;1386;50.862;6.494;2022-08-04T08:03:14;6.03;;;2.63;;
2756;SDS011;1386;50.862;6.494;2022-08-04T08:05:41;7.50;;;2.50;;
2756;SDS011;1386;50.862;6.494;2022-08-04T08:08:09;8.07;;;2.63;;
2756;SDS011;1386;50.862;6.494;2022-08-04T08:10:36;7.77;;;2.37;;
2756;SDS011;1386;50.862;6.494;2022-08-04T08:13:03;7.40;;;2.40;;
2756;SDS011;1386;50.862;6.494;2022-08-04T08:15:32;5.67;;;2.23;;
2756;SDS011;1386;50.862;6.494;2022-08-04T08:18:00;6.00;;;3.00;;
2756;SDS011;1386;50.862;6.494;2022-08-04T08:20:29;2.60;;;1.93;;
2756;SDS011;1386;50.862;6.494;2022-08-04T08:22:57;4.10;;;2.13;;
2756;SDS011;1386;50.862;6.494;2022-08-04T08:25:25;4.07;;;2.10;;
2756;SDS011;1386;50.862;6.494;2022-08-04T08:27:52;8.80;;;1.93;;
2756;SDS011;1386;50.862;6.494;2022-08-04T08:30:19;8.80;;;2.50;;
2756;SDS011;1386;50.862;6.494;2022-08-04T08:32:46;5.47;;;1.97;;
2756;SDS011;1386;50.862;6.494;2022-08-04T08:35:13;5.10;;;2.27;;
2756;SDS011;1386;50.862;6.494;2022-08-04T08:37:43;6.60;;;2.67;;
2756;SDS011;1386;50.862;6.494;2022-08-04T08:40:20;4.80;;;2.13;;
2756;SDS011;1386;50.862;6.494;2022-08-04T08:43:10;6.13;;;2.20;;
2756;SDS011;1386;50.862;6.494;2022-08-04T08:48:55;6.43;;;2.30;;
2756;SDS011;1386;50.862;6.494;2022-08-04T08:54:58;6.80;;;2.37;;
2756;SDS011;1386;50.862;6.494;2022-08-04T08:58:08;8.57;;;2.83;;
2756;SDS011;1386;50.862;6.494;2022-08-04T09:01:19;7.13;;;2.17;;
2756;SDS011;1386;50.862;6.494;2022-08-04T09:04:23;4.30;;;2.13;;
2756;SDS011;1386;50.862;6.494;2022-08-04T09:10:25;7.27;;;1.87;;
2756;SDS011;1386;50.862;6.494;2022-08-04T09:13:01;4.53;;;1.90;;
2756;SDS011;1386;50.862;6.494;2022-08-04T09:15:32;4.13;;;2.33;;
2756;SDS011;1386;50.862;6.494;2022-08-04T09:18:05;6.10;;;1.53;;
2756;SDS011;1386;50.862;6.494;2022-08-04T09:20:36;4.53;;;2.13;;
2756;SDS011;1386;50.862;6.494;2022-08-04T09:23:07;3.10;;;1.70;;
2756;SDS011;1386;50.862;6.494;2022-08-04T09:25:45;7.93;;;1.90;;
2756;SDS011;1386;50.862;6.494;2022-08-04T09:28:20;8.23;;;1.60;;
2756;SDS011;1386;50.862;6.494;2022-08-04T09:30:51;2.93;;;1.33;;
2756;SDS011;1386;50.862;6.494;2022-08-04T09:33:26;4.13;;;1.80;;
2756;SDS011;1386;50.862;6.494;2022-08-04T09:36:00;8.80;;;2.20;;
2756;SDS011;1386;50.862;6.494;2022-08-04T09:38:32;6.63;;;1.87;;
2756;SDS011;1386;50.862;6.494;2022-08-04T09:41:12;4.67;;;1.67;;
2756;SDS011;1386;50.862;6.494;2022-08-04T09:43:48;4.03;;;1.60;;
2756;SDS011;1386;50.862;6.494;2022-08-04T09:46:27;5.60;;;2.80;;
2756;SDS011;1386;50.862;6.494;2022-08-04T09:48:58;7.47;;;2.17;;
2756;SDS011;1386;50.862;6.494;2022-08-04T09:51:37;5.53;;;2.00;;
2756;SDS011;1386;50.862;6.494;2022-08-04T09:54:13;6.77;;;1.87;;
2756;SDS011;1386;50.862;6.494;2022-08-04T09:56:48;13.30;;;2.07;;
2756;SDS011;1386;50.862;6.494;2022-08-04T09:59:23;4.77;;;1.93;;
2756;SDS011;1386;50.862;6.494;2022-08-04T10:01:54;11.00;;;2.00;;
2756;SDS011;1386;50.862;6.494;2022-08-04T10:04:23;6.97;;;1.80;;
2756;SDS011;1386;50.862;6.494;2022-08-04T10:07:01;3.20;;;1.63;;
2756;SDS011;1386;50.862;6.494;2022-08-04T10:13:27;9.80;;;2.00;;
2756;SDS011;1386;50.862;6.494;2022-08-04T10:16:10;2.43;;;1.63;;
2756;SDS011;1386;50.862;6.494;2022-08-04T10:19:06;7.07;;;2.00;;
2756;SDS011;1386;50.862;6.494;2022-08-04T10:21:42;9.03;;;2.00;;
2756;SDS011;1386;50.862;6.494;2022-08-04T10:24:28;12.60;;;1.97;;
2756;SDS011;1386;50.862;6.494;2022-08-04T10:27:08;13.80;;;2.50;;
2756;SDS011;1386;50.862;6.494;2022-08-04T10:29:45;3.67;;;1.80;;
2756;SDS011;1386;50.862;6.494;2022-08-04T10:32:13;6.20;;;1.80;;
2756;SDS011;1386;50.862;6.494;2022-08-04T10:34:55;6.60;;;2.37;;
2756;SDS011;1386;50.862;6.494;2022-08-04T10:37:31;5.00;;;1.83;;
2756;SDS011;1386;50.862;6.494;2022-08-04T10:40:04;6.33;;;2.27;;
2756;SDS011;1386;50.862;6.494;2022-08-04T10:45:14;5.83;;;1.80;;
2756;SDS011;1386;50.862;6.494;2022-08-04T10:46:25;7.97;;;2.53;;
2756;SDS011;1386;50.862;6.494;2022-08-04T10:52:26;8.60;;;2.20;;
2756;SDS011;1386;50.862;6.494;2022-08-04T10:58:21;8.90;;;2.33;;
2756;SDS011;1386;50.862;6.494;2022-08-04T11:37:39;11.77;;;2.30;;
2756;SDS011;1386;50.862;6.494;2022-08-04T11:40:42;5.47;;;2.33;;
2756;SDS011;1386;50.862;6.494;2022-08-04T11:47:03;3.23;;;2.10;;
2756;SDS011;1386;50.862;6.494;2022-08-04T12:15:25;5.70;;;2.10;;
2756;SDS011;1386;50.862;6.494;2022-08-04T12:28:49;4.80;;;2.50;;
2756;SDS011;1386;50.862;6.494;2022-08-04T12:32:12;5.90;;;2.67;;
2756;SDS011;1386;50.862;6.494;2022-08-04T12:35:11;3.43;;;2.20;;
2756;SDS011;1386;50.862;6.494;2022-08-04T12:44:20;2.97;;;2.30;;
2756;SDS011;1386;50.862;6.494;2022-08-04T16:00:10;7.00;;;2.87;;
2756;SDS011;1386;50.862;6.494;2022-08-04T16:02:38;6.20;;;3.07;;
2756;SDS011;1386;50.862;6.494;2022-08-04T16:08:13;8.13;;;3.23;;
2756;SDS011;1386;50.862;6.494;2022-08-04T16:10:45;4.83;;;2.73;;
2756;SDS011;1386;50.862;6.494;2022-08-04T16:13:13;6.30;;;2.90;;
2756;SDS011;1386;50.862;6.494;2022-08-04T16:15:46;7.13;;;3.00;;
2756;SDS011;1386;50.862;6.494;2022-08-04T16:18:18;5.37;;;3.10;;
2756;SDS011;1386;50.862;6.494;2022-08-04T16:21:01;3.40;;;2.70;;
2756;SDS011;1386;50.862;6.494;2022-08-04T16:23:46;7.13;;;3.13;;
2756;SDS011;1386;50.862;6.494;2022-08-04T16:29:26;4.50;;;2.57;;
2756;SDS011;1386;50.862;6.494;2022-08-04T16:34:53;5.77;;;2.77;;
2756;SDS011;1386;50.862;6.494;2022-08-04T16:37:27;4.93;;;3.03;;
2756;SDS011;1386;50.862;6.494;2022-08-04T16:42:58;7.70;;;2.60;;
2756;SDS011;1386;50.862;6.494;2022-08-04T16:45:46;6.30;;;3.20;;
2756;SDS011;1386;50.862;6.494;2022-08-04T16:48:16;7.53;;;2.80;;
2756;SDS011;1386;50.862;6.494;2022-08-04T16:50:46;7.07;;;3.30;;
2756;SDS011;1386;50.862;6.494;2022-08-04T16:53:18;6.50;;;3.23;;
2756;SDS011;1386;50.862;6.494;2022-08-04T16:55:46;9.40;;;3.23;;
2756;SDS011;1386;50.862;6.494;2022-08-04T16:58:14;6.30;;;3.10;;
2756;SDS011;1386;50.862;6.494;2022-08-04T17:00:42;4.23;;;2.40;;
2756;SDS011;1386;50.862;6.494;2022-08-04T17:03:09;10.37;;;3.03;;
2756;SDS011;1386;50.862;6.494;2022-08-04T17:05:38;7.83;;;3.20;;
2756;SDS011;1386;50.862;6.494;2022-08-04T17:08:06;4.40;;;2.83;;
2756;SDS011;1386;50.862;6.494;2022-08-04T17:10:35;8.50;;;3.40;;
2756;SDS011;1386;50.862;6.494;2022-08-04T17:13:19;7.80;;;3.07;;
2756;SDS011;1386;50.862;6.494;2022-08-04T17:15:48;7.97;;;2.77;;
2756;SDS011;1386;50.862;6.494;2022-08-04T17:18:17;7.43;;;2.60;;
2756;SDS011;1386;50.862;6.494;2022-08-04T17:20:46;7.70;;;3.03;;
2756;SDS011;1386;50.862;6.494;2022-08-04T17:23:30;8.90;;;3.07;;
2756;SDS011;1386;50.862;6.494;2022-08-04T17:26:03;9.40;;;3.20;;
2756;SDS011;1386;50.862;6.494;2022-08-04T17:28:32;4.23;;;2.67;;
2756;SDS011;1386;50.862;6.494;2022-08-04T17:31:00;4.93;;;2.70;;
2756;SDS011;1386;50.862;6.494;2022-08-04T17:33:29;8.70;;;3.40;;
2756;SDS011;1386;50.862;6.494;2022-08-04T17:35:58;5.40;;;3.47;;
2756;SDS011;1386;50.862;6.494;2022-08-04T17:38:36;7.20;;;3.10;;
2756;SDS011;1386;50.862;6.494;2022-08-04T17:41:06;7.67;;;3.30;;
2756;SDS011;1386;50.862;6.494;2022-08-04T17:43:41;8.90;;;3.33;;
2756;SDS011;1386;50.862;6.494;2022-08-04T17:46:16;7.83;;;2.80;;
2756;SDS011;1386;50.862;6.494;2022-08-04T17:48:44;9.90;;;3.00;;
2756;SDS011;1386;50.862;6.494;2022-08-04T17:51:18;4.97;;;2.80;;
2756;SDS011;1386;50.862;6.494;2022-08-04T17:53:45;6.33;;;2.87;;
2756;SDS011;1386;50.862;6.494;2022-08-04T17:56:32;8.90;;;3.10;;
2756;SDS011;1386;50.862;6.494;2022-08-04T17:59:13;8.33;;;3.47;;
2756;SDS011;1386;50.862;6.494;2022-08-04T18:01:51;4.90;;;2.70;;
2756;SDS011;1386;50.862;6.494;2022-08-04T18:04:31;6.43;;;3.13;;
2756;SDS011;1386;50.862;6.494;2022-08-04T18:07:03;8.43;;;3.43;;
2756;SDS011;1386;50.862;6.494;2022-08-04T18:09:32;6.33;;;3.10;;
2756;SDS011;1386;50.862;6.494;2022-08-04T18:12:00;8.03;;;3.50;;
2756;SDS011;1386;50.862;6.494;2022-08-04T18:14:35;10.17;;;3.90;;
2756;SDS011;1386;50.862;6.494;2022-08-04T18:17:07;6.93;;;3.33;;
2756;SDS011;1386;50.862;6.494;2022-08-04T18:19:34;5.00;;;3.00;;
2756;SDS011;1386;50.862;6.494;2022-08-04T18:22:04;9.20;;;3.40;;
2756;SDS011;1386;50.862;6.494;2022-08-04T18:24:32;10.67;;;3.13;;
2756;SDS011;1386;50.862;6.494;2022-08-04T18:27:00;7.87;;;3.53;;
2756;SDS011;1386;50.862;6.494;2022-08-04T18:29:27;15.50;;;4.20;;
2756;SDS011;1386;50.862;6.494;2022-08-04T18:31:54;8.87;;;3.73;;
2756;SDS011;1386;50.862;6.494;2022-08-04T18:34:21;6.83;;;3.37;;
2756;SDS011;1386;50.862;6.494;2022-08-04T18:36:48;7.73;;;4.10;;
2756;SDS011;1386;50.862;6.494;2022-08-04T18:39:17;11.33;;;3.67;;
2756;SDS011;1386;50.862;6.494;2022-08-04T18:41:46;4.17;;;3.43;;
2756;SDS011;1386;50.862;6.494;2022-08-04T18:44:15;6.63;;;3.00;;
2756;SDS011;1386;50.862;6.494;2022-08-04T18:46:42;4.90;;;2.60;;
2756;SDS011;1386;50.862;6.494;2022-08-04T18:49:09;5.00;;;2.37;;
2756;SDS011;1386;50.862;6.494;2022-08-04T18:51:36;8.13;;;2.70;;
2756;SDS011;1386;50.862;6.494;2022-08-04T18:54:03;10.93;;;3.23;;
2756;SDS011;1386;50.862;6.494;2022-08-04T18:56:32;7.33;;;3.00;;
2756;SDS011;1386;50.862;6.494;2022-08-04T18:59:00;7.13;;;3.13;;
2756;SDS011;1386;50.862;6.494;2022-08-04T19:01:29;8.93;;;3.50;;
2756;SDS011;1386;50.862;6.494;2022-08-04T19:03:56;7.83;;;3.10;;
2756;SDS011;1386;50.862;6.494;2022-08-04T19:06:23;6.10;;;2.93;;
2756;SDS011;1386;50.862;6.494;2022-08-04T19:08:50;8.27;;;2.90;;
2756;SDS011;1386;50.862;6.494;2022-08-04T19:11:17;5.77;;;3.10;;
2756;SDS011;1386;50.862;6.494;2022-08-04T19:13:45;6.27;;;3.23;;
2756;SDS011;1386;50.862;6.494;2022-08-04T19:16:12;6.70;;;2.73;;
2756;SDS011;1386;50.862;6.494;2022-08-04T19:18:39;7.17;;;3.00;;
2756;SDS011;1386;50.862;6.494;2022-08-04T19:21:06;7.83;;;3.13;;
2756;SDS011;1386;50.862;6.494;2022-08-04T19:23:33;8.20;;;3.40;;
2756;SDS011;1386;50.862;6.494;2022-08-04T19:26:00;4.03;;;2.97;;
2756;SDS011;1386;50.862;6.494;2022-08-04T19:28:28;6.53;;;2.67;;
2756;SDS011;1386;50.862;6.494;2022-08-04T19:30:58;6.40;;;2.80;;
2756;SDS011;1386;50.862;6.494;2022-08-04T19:33:25;7.90;;;2.73;;
2756;SDS011;1386;50.862;6.494;2022-08-04T19:35:52;8.00;;;3.00;;
2756;SDS011;1386;50.862;6.494;2022-08-04T19:38:19;6.90;;;2.97;;
2756;SDS011;1386;50.862;6.494;2022-08-04T19:40:46;8.40;;;2.90;;
2756;SDS011;1386;50.862;6.494;2022-08-04T19:43:13;5.73;;;2.63;;
2756;SDS011;1386;50.862;6.494;2022-08-04T19:45:40;3.03;;;2.30;;
2756;SDS011;1386;50.862;6.494;2022-08-04T19:48:09;8.50;;;3.03;;
2756;SDS011;1386;50.862;6.494;2022-08-04T19:50:35;7.17;;;2.60;;
2756;SDS011;1386;50.862;6.494;2022-08-04T19:53:02;6.33;;;3.17;;
2756;SDS011;1386;50.862;6.494;2022-08-04T19:55:30;5.67;;;3.10;;
2756;SDS011;1386;50.862;6.494;2022-08-04T19:57:59;9.23;;;3.20;;
2756;SDS011;1386;50.862;6.494;2022-08-04T20:00:28;7.13;;;2.67;;
2756;SDS011;1386;50.862;6.494;2022-08-04T20:02:55;11.30;;;2.90;;
2756;SDS011;1386;50.862;6.494;2022-08-04T20:05:24;5.63;;;3.10;;
2756;SDS011;1386;50.862;6.494;2022-08-04T20:07:51;5.13;;;2.83;;
2756;SDS011;1386;50.862;6.494;2022-08-04T20:10:18;7.80;;;2.73;;
2756;SDS011;1386;50.862;6.494;2022-08-04T20:12:47;10.00;;;3.33;;
2756;SDS011;1386;50.862;6.494;2022-08-04T20:15:15;4.47;;;2.80;;
2756;SDS011;1386;50.862;6.494;2022-08-04T20:17:42;5.10;;;3.20;;
2756;SDS011;1386;50.862;6.494;2022-08-04T20:23:10;3.20;;;2.60;;
2756;SDS011;1386;50.862;6.494;2022-08-04T20:25:55;4.87;;;3.03;;
2756;SDS011;1386;50.862;6.494;2022-08-04T20:28:41;3.43;;;2.67;;
2756;SDS011;1386;50.862;6.494;2022-08-04T20:31:22;8.80;;;3.00;;
2756;SDS011;1386;50.862;6.494;2022-08-04T20:37:30;10.30;;;3.27;;
2756;SDS011;1386;50.862;6.494;2022-08-04T20:40:23;5.53;;;2.73;;
2756;SDS011;1386;50.862;6.494;2022-08-04T20:43:41;4.43;;;3.27;;
2756;SDS011;1386;50.862;6.494;2022-08-04T21:00:14;6.43;;;3.00;;
2756;SDS011;1386;50.862;6.494;2022-08-04T21:05:42;5.73;;;2.83;;
2756;SDS011;1386;50.862;6.494;2022-08-04T21:11:29;5.50;;;2.87;;
2756;SDS011;1386;50.862;6.494;2022-08-04T21:13:56;5.37;;;3.77;;
2756;SDS011;1386;50.862;6.494;2022-08-04T21:16:28;7.60;;;3.13;;
2756;SDS011;1386;50.862;6.494;2022-08-04T21:25:05;7.20;;;3.90;;
2756;SDS011;1386;50.862;6.494;2022-08-04T21:27:33;7.70;;;3.17;;
2756;SDS011;1386;50.862;6.494;2022-08-04T21:30:00;5.60;;;3.27;;
2756;SDS011;1386;50.862;6.494;2022-08-04T21:32:30;5.63;;;3.40;;
2756;SDS011;1386;50.862;6.494;2022-08-04T21:34:58;7.17;;;3.03;;
2756;SDS011;1386;50.862;6.494;2022-08-04T21:37:26;4.30;;;3.13;;
2756;SDS011;1386;50.862;6.494;2022-08-04T21:39:56;6.60;;;3.10;;
2756;SDS011;1386;50.862;6.494;2022-08-04T21:42:24;9.87;;;2.73;;
2756;SDS011;1386;50.862;6.494;2022-08-04T21:44:52;9.10;;;2.87;;
2756;SDS011;1386;50.862;6.494;2022-08-04T21:47:23;6.43;;;3.20;;
